Time;durP1;ratioP1;P1;durP2;ratioP2;P2;SDS_P1;SDS_P2;PMS_P1;PMS_P2;Temp;Humidity;BMP_temperature;BMP_pressure;BME280_temperature;BME280_humidity;BME280_pressure;Samples;Min_cycle;Max_cycle;Signal;HPM_P1;HPM_P2
2022/10/18 03:15:04;;;;;;;21.43;19.33;;;15.20;99.90;;;;;;4969509;26;21030;-71
2022/10/18 03:17:31;;;;;;;22.07;20.07;;;15.20;99.90;;;;;;4971748;28;20448;-71
2022/10/18 03:19:57;;;;;;;22.23;20.57;;;15.20;99.90;;;;;;4971843;28;20496;-71
2022/10/18 03:22:26;;;;;;;23.37;21.40;;;15.20;99.90;;;;;;4971852;28;20479;-72
2022/10/18 03:24:53;;;;;;;21.27;19.33;;;15.20;99.90;;;;;;4971993;28;20452;-71
2022/10/18 03:27:20;;;;;;;21.97;20.10;;;15.10;99.90;;;;;;4971494;28;20461;-71
2022/10/18 03:29:47;;;;;;;21.77;20.17;;;15.20;99.90;;;;;;4971622;28;20483;-72
2022/10/18 03:32:15;;;;;;;22.37;20.77;;;15.10;99.90;;;;;;4971519;28;20462;-72
2022/10/18 03:34:42;;;;;;;22.13;20.67;;;15.10;99.90;;;;;;4971404;28;20466;-71
2022/10/18 03:37:08;;;;;;;21.47;19.80;;;15.10;99.90;;;;;;4971610;28;20451;-71
2022/10/18 03:39:35;;;;;;;21.23;20.03;;;15.00;99.90;;;;;;4971432;28;20846;-72
2022/10/18 03:42:02;;;;;;;23.07;21.13;;;15.00;99.90;;;;;;4971324;28;20591;-72
2022/10/18 03:44:28;;;;;;;22.20;20.50;;;15.00;99.90;;;;;;4971287;28;20450;-71
2022/10/18 03:46:55;;;;;;;24.23;22.57;;;15.00;99.90;;;;;;4971556;28;20459;-71
2022/10/18 03:49:23;;;;;;;23.03;21.50;;;15.00;99.90;;;;;;4971129;28;20448;-71
2022/10/18 03:51:50;;;;;;;20.87;19.17;;;15.00;99.90;;;;;;4970915;28;20560;-71
2022/10/18 03:54:17;;;;;;;21.70;20.10;;;15.00;99.90;;;;;;4971003;28;20452;-71
2022/10/18 03:56:43;;;;;;;26.73;21.40;;;15.00;99.90;;;;;;4970735;28;20447;-72
2022/10/18 03:59:10;;;;;;;22.87;21.37;;;15.00;99.90;;;;;;4972363;28;20502;-73
2022/10/18 04:01:37;;;;;;;22.90;21.20;;;14.90;99.90;;;;;;4981512;28;20542;-73
2022/10/18 04:04:04;;;;;;;20.70;19.50;;;14.90;99.90;;;;;;4978852;28;20812;-73
2022/10/18 04:06:32;;;;;;;23.60;22.00;;;14.80;99.90;;;;;;4971089;28;20487;-73
2022/10/18 04:08:58;;;;;;;21.70;20.10;;;14.80;99.90;;;;;;4987694;28;20447;-73
2022/10/18 04:11:25;;;;;;;21.10;19.90;;;15.00;99.90;;;;;;4990639;28;20462;-72
2022/10/18 04:13:52;;;;;;;23.67;21.73;;;14.90;99.90;;;;;;4990468;28;20493;-72
2022/10/18 04:16:19;;;;;;;24.00;22.10;;;14.90;99.90;;;;;;4982912;28;20803;-72
2022/10/18 04:18:45;;;;;;;21.30;19.87;;;14.90;99.90;;;;;;4970388;28;20582;-73
2022/10/18 04:21:12;;;;;;;20.33;18.83;;;14.80;99.90;;;;;;4970668;28;20493;-72
2022/10/18 04:23:40;;;;;;;19.33;17.83;;;14.80;99.90;;;;;;4970735;28;20460;-72
2022/10/18 04:26:07;;;;;;;19.93;18.67;;;14.70;99.90;;;;;;4970607;28;20463;-73
2022/10/18 04:28:38;;;;;;;18.90;17.57;;;14.80;99.90;;;;;;4970224;28;20447;-72
2022/10/18 04:31:05;;;;;;;20.47;18.97;;;14.80;99.90;;;;;;4970344;28;20456;-73
2022/10/18 04:33:32;;;;;;;22.13;20.00;;;14.80;99.90;;;;;;4978769;28;20450;-73
2022/10/18 04:35:59;;;;;;;20.90;19.80;;;14.80;99.90;;;;;;4989732;28;20820;-73
2022/10/18 04:38:26;;;;;;;23.13;21.43;;;14.90;99.90;;;;;;4972565;28;20491;-72
2022/10/18 04:40:54;;;;;;;21.97;20.57;;;14.90;99.90;;;;;;4969063;28;20542;-72
2022/10/18 04:43:20;;;;;;;20.70;19.13;;;14.90;99.90;;;;;;4970215;28;20570;-71
2022/10/18 04:45:49;;;;;;;22.50;21.10;;;15.00;99.90;;;;;;4970228;28;20455;-72
2022/10/18 04:48:16;;;;;;;21.03;19.63;;;15.00;99.90;;;;;;4970077;28;20515;-72
2022/10/18 04:50:43;;;;;;;21.03;19.03;;;14.90;99.90;;;;;;4969847;28;20891;-72
2022/10/18 04:53:10;;;;;;;18.90;17.93;;;14.90;99.90;;;;;;4970772;28;20456;-73
2022/10/18 04:55:37;;;;;;;20.43;18.97;;;14.90;99.90;;;;;;4970764;28;20447;-73
2022/10/18 04:58:05;;;;;;;20.70;19.10;;;14.90;99.90;;;;;;4970244;28;20890;-73
2022/10/18 05:00:32;;;;;;;20.27;18.93;;;15.00;99.90;;;;;;4970350;28;20462;-73
2022/10/18 05:02:58;;;;;;;23.30;21.20;;;15.00;99.90;;;;;;4970133;28;20763;-73
2022/10/18 05:05:25;;;;;;;21.37;19.90;;;15.00;99.90;;;;;;4970621;28;20964;-73
2022/10/18 05:07:52;;;;;;;20.57;18.70;;;15.00;99.90;;;;;;4970427;28;20459;-71
2022/10/18 05:10:19;;;;;;;19.90;18.30;;;15.00;99.90;;;;;;4969893;28;20946;-72
2022/10/18 05:12:45;;;;;;;21.07;19.20;;;15.00;99.90;;;;;;4969870;28;20713;-71
2022/10/18 05:15:13;;;;;;;24.00;19.70;;;15.00;99.90;;;;;;4969934;28;20459;-71
2022/10/18 05:17:40;;;;;;;19.93;18.57;;;15.10;99.90;;;;;;4970393;28;20447;-72
2022/10/18 05:20:08;;;;;;;21.20;19.80;;;15.10;99.90;;;;;;4970112;28;20487;-71
2022/10/18 05:22:34;;;;;;;22.17;20.63;;;15.20;99.90;;;;;;4969897;28;20462;-71
2022/10/18 05:25:01;;;;;;;24.80;22.50;;;15.20;99.90;;;;;;4969905;28;20451;-70
2022/10/18 05:27:28;;;;;;;24.13;22.33;;;15.20;99.90;;;;;;4969623;28;20456;-71
2022/10/18 05:29:55;;;;;;;20.40;18.90;;;15.10;99.90;;;;;;4969968;28;20801;-71
2022/10/18 05:32:23;;;;;;;20.37;18.67;;;15.10;99.90;;;;;;4969954;28;20451;-71
2022/10/18 05:34:50;;;;;;;21.50;19.70;;;15.10;99.90;;;;;;4969759;28;20563;-72
2022/10/18 05:37:17;;;;;;;21.83;20.40;;;15.00;99.90;;;;;;4969758;28;20451;-72
2022/10/18 05:39:44;;;;;;;22.27;20.43;;;15.00;99.90;;;;;;4969736;28;20487;-72
2022/10/18 05:42:11;;;;;;;24.40;21.87;;;15.00;99.90;;;;;;4969926;28;20539;-72
2022/10/18 05:44:37;;;;;;;24.50;22.40;;;14.90;99.90;;;;;;4969873;28;20459;-71
2022/10/18 05:47:04;;;;;;;24.73;22.37;;;15.00;99.90;;;;;;4969559;28;20471;-72
2022/10/18 05:49:32;;;;;;;21.10;19.03;;;15.00;99.90;;;;;;4969643;28;20552;-74
2022/10/18 05:51:59;;;;;;;22.97;21.07;;;15.00;99.90;;;;;;4969587;28;20447;-72
2022/10/18 05:54:25;;;;;;;20.20;18.73;;;15.00;99.90;;;;;;4969670;28;20459;-72
2022/10/18 05:56:52;;;;;;;23.97;21.80;;;15.10;99.90;;;;;;4969732;28;20818;-72
2022/10/18 05:59:19;;;;;;;22.43;20.93;;;15.10;99.90;;;;;;4969337;28;20480;-72
2022/10/18 06:01:46;;;;;;;23.03;21.27;;;15.10;99.90;;;;;;4969514;28;20455;-72
2022/10/18 06:04:12;;;;;;;23.20;21.33;;;15.10;99.90;;;;;;4972564;28;20463;-72
2022/10/18 06:06:40;;;;;;;23.40;21.37;;;15.10;99.90;;;;;;4973362;28;20937;-71
2022/10/18 06:09:07;;;;;;;24.43;22.17;;;15.20;99.90;;;;;;4973386;28;20459;-73
2022/10/18 06:11:36;;;;;;;23.13;21.20;;;15.20;99.90;;;;;;4972931;28;20475;-72
2022/10/18 06:14:03;;;;;;;22.83;20.90;;;15.20;99.90;;;;;;4972873;28;20487;-72
2022/10/18 06:16:29;;;;;;;22.60;19.73;;;15.20;99.90;;;;;;4973152;28;20455;-72
2022/10/18 06:18:58;;;;;;;21.73;20.03;;;15.30;99.90;;;;;;4972945;28;20479;-72
2022/10/18 06:21:25;;;;;;;24.20;21.83;;;15.30;99.90;;;;;;4973357;28;20952;-72
2022/10/18 06:23:55;;;;;;;24.23;22.10;;;15.30;99.90;;;;;;4973110;28;20455;-72
2022/10/18 06:26:22;;;;;;;25.40;22.70;;;15.30;99.90;;;;;;4972965;28;20462;-72
2022/10/18 06:28:49;;;;;;;24.43;22.27;;;15.40;99.90;;;;;;4972643;28;20464;-73
2022/10/18 06:31:16;;;;;;;22.57;20.93;;;15.40;99.90;;;;;;4972759;28;20447;-72
2022/10/18 06:33:44;;;;;;;24.83;22.23;;;15.50;99.90;;;;;;4972693;28;20456;-71
2022/10/18 06:36:13;;;;;;;22.73;20.27;;;15.70;99.90;;;;;;4972874;28;20463;-71
2022/10/18 06:38:40;;;;;;;21.30;19.43;;;16.10;99.90;;;;;;4972634;28;20502;-71
2022/10/18 06:41:08;;;;;;;19.23;17.83;;;16.40;99.90;;;;;;4972729;28;20455;-72
2022/10/18 06:43:35;;;;;;;19.30;17.80;;;16.80;99.90;;;;;;4972653;28;20452;-72
2022/10/18 06:46:05;;;;;;;18.80;17.30;;;17.10;99.90;;;;;;4972412;28;20455;-71
2022/10/18 06:48:32;;;;;;;18.37;16.70;;;17.50;99.90;;;;;;4972516;28;20846;-72
2022/10/18 06:51:01;;;;;;;18.63;16.73;;;17.80;99.90;;;;;;4972698;28;20801;-73
2022/10/18 06:53:29;;;;;;;17.37;16.03;;;18.10;99.90;;;;;;4972978;28;20459;-72
2022/10/18 06:56:00;;;;;;;17.90;16.20;;;18.10;99.90;;;;;;4973167;28;20456;-72
2022/10/18 06:58:28;;;;;;;17.27;16.17;;;18.10;99.90;;;;;;4973252;28;20798;-72
2022/10/18 07:00:55;;;;;;;18.00;16.70;;;18.00;99.90;;;;;;4973091;28;20488;-73
2022/10/18 07:03:21;;;;;;;17.60;16.47;;;17.90;99.90;;;;;;4973085;28;20443;-73
2022/10/18 07:05:48;;;;;;;19.03;17.70;;;17.80;99.90;;;;;;4972975;28;20462;-73
2022/10/18 07:08:15;;;;;;;20.20;18.20;;;17.80;99.90;;;;;;4972833;28;20942;-72
2022/10/18 07:10:42;;;;;;;19.60;18.10;;;17.90;99.90;;;;;;4972926;28;20459;-72
2022/10/18 07:13:09;;;;;;;18.57;16.90;;;18.00;99.90;;;;;;4972421;28;20487;-71
2022/10/18 07:15:37;;;;;;;19.70;18.00;;;17.90;99.90;;;;;;4972678;28;20447;-72
2022/10/18 07:18:04;;;;;;;18.83;17.57;;;18.10;99.90;;;;;;4972450;28;20454;-72
2022/10/18 07:20:31;;;;;;;22.13;20.40;;;18.10;99.90;;;;;;4972429;28;20671;-72
2022/10/18 07:22:57;;;;;;;22.60;20.30;;;18.10;99.90;;;;;;4972522;28;20455;-72
2022/10/18 07:25:24;;;;;;;23.07;20.90;;;18.00;99.90;;;;;;4972626;28;20474;-73
2022/10/18 07:27:51;;;;;;;22.70;20.27;;;17.70;99.90;;;;;;4972339;28;20816;-72
2022/10/18 07:30:18;;;;;;;19.53;18.03;;;;;;;;;;4972088;28;20456;-73
2022/10/18 07:32:46;;;;;;;19.30;17.80;;;17.40;99.90;;;;;;4972147;28;20542;-73
2022/10/18 07:35:13;;;;;;;19.83;17.90;;;17.30;99.90;;;;;;4972326;28;20822;-72
2022/10/18 07:37:40;;;;;;;19.80;18.50;;;17.10;99.90;;;;;;4972144;28;20542;-73
2022/10/18 07:40:08;;;;;;;19.17;17.57;;;17.10;99.90;;;;;;4971823;28;20498;-73
2022/10/18 07:42:35;;;;;;;20.70;19.07;;;17.10;99.90;;;;;;4971985;28;20534;-73
2022/10/18 07:45:02;;;;;;;18.07;16.90;;;17.20;99.90;;;;;;4971847;28;20454;-73
2022/10/18 07:47:28;;;;;;;18.67;17.13;;;17.30;99.90;;;;;;4972023;28;20809;-73
2022/10/18 07:49:57;;;;;;;16.83;15.73;;;17.40;99.90;;;;;;4972051;28;20794;-73
2022/10/18 07:52:23;;;;;;;16.00;15.00;;;17.50;99.90;;;;;;4972135;28;20462;-73
2022/10/18 07:54:50;;;;;;;16.83;15.73;;;17.50;99.90;;;;;;4972040;28;20814;-73
2022/10/18 07:57:17;;;;;;;16.37;15.20;;;17.60;99.90;;;;;;4971718;28;20454;-73
2022/10/18 07:59:46;;;;;;;16.67;15.40;;;;;;;;;;4971554;28;20495;-73
2022/10/18 08:02:13;;;;;;;16.70;15.70;;;17.80;99.90;;;;;;4970074;28;20459;-73
2022/10/18 08:04:40;;;;;;;21.30;19.30;;;;;;;;;;4971707;28;20462;-73
2022/10/18 08:07:08;;;;;;;19.27;17.50;;;17.90;99.90;;;;;;4971823;28;20451;-73
2022/10/18 08:09:35;;;;;;;19.07;17.43;;;18.10;99.90;;;;;;4971629;28;20447;-72
2022/10/18 08:12:02;;;;;;;18.37;16.80;;;18.10;99.90;;;;;;4971241;28;20864;-73
2022/10/18 08:14:28;;;;;;;17.83;16.20;;;18.30;99.90;;;;;;4971482;28;20484;-73
2022/10/18 08:16:55;;;;;;;18.07;15.70;;;18.40;99.90;;;;;;4971873;28;20455;-74
2022/10/18 08:19:22;;;;;;;17.50;16.30;;;18.60;99.90;;;;;;4969524;28;20463;-74
2022/10/18 08:21:49;;;;;;;18.60;17.30;;;18.80;99.90;;;;;;4971552;28;20470;-73
2022/10/18 08:24:17;;;;;;;17.70;16.60;;;18.80;99.90;;;;;;4971390;28;21151;-73
2022/10/18 08:26:44;;;;;;;17.37;15.90;;;18.80;99.90;;;;;;4980489;28;20542;-73
2022/10/18 08:29:12;;;;;;;16.27;15.17;;;18.90;99.90;;;;;;4991136;28;20458;-74
2022/10/18 08:31:38;;;;;;;16.10;15.10;;;19.00;99.90;;;;;;4990976;28;20505;-73
2022/10/18 08:34:05;;;;;;;16.20;15.00;;;19.00;99.90;;;;;;4990811;28;20451;-73
2022/10/18 08:36:32;;;;;;;16.80;15.37;;;19.00;99.90;;;;;;4990570;28;20743;-73
2022/10/18 08:38:58;;;;;;;15.23;14.33;;;18.90;99.90;;;;;;4990534;28;20451;-74
2022/10/18 08:41:42;;;;;;;15.90;14.70;;;19.00;99.90;;;;;;4990688;28;21011;-73
2022/10/18 08:44:15;;;;;;;15.03;14.13;;;19.10;99.90;;;;;;4990919;28;20453;-73
2022/10/18 08:46:45;;;;;;;15.80;14.90;;;19.30;99.90;;;;;;4990698;28;20451;-73
2022/10/18 08:49:22;;;;;;;16.67;15.27;;;19.50;99.90;;;;;;4990488;28;20470;-74
2022/10/18 08:51:50;;;;;;;17.00;15.40;;;20.40;99.90;;;;;;4990303;28;20542;-74
2022/10/18 08:54:24;;;;;;;19.03;17.27;;;20.40;99.90;;;;;;4990358;28;20775;-74
2022/10/18 08:56:58;;;;;;;17.43;15.93;;;20.60;99.90;;;;;;4990316;28;20470;-74
2022/10/18 08:59:25;;;;;;;16.10;14.80;;;20.70;99.90;;;;;;4990522;28;20461;-73
2022/10/18 09:02:02;;;;;;;19.33;17.43;;;20.50;99.90;;;;;;4990341;28;20801;-73
2022/10/18 09:04:44;;;;;;;19.53;16.67;;;20.30;99.90;;;;;;4989988;28;20447;-74
2022/10/18 09:07:32;;;;;;;25.10;17.40;;;20.60;99.90;;;;;;4990198;28;20459;-73
2022/10/18 09:10:06;;;;;;;16.23;15.23;;;21.00;99.90;;;;;;4990114;28;20822;-73
2022/10/18 09:12:52;;;;;;;15.53;14.40;;;21.10;99.90;;;;;;4989860;28;20478;-73
2022/10/18 09:15:29;;;;;;;18.47;16.07;;;21.40;99.90;;;;;;4970560;28;20451;-74
2022/10/18 09:18:09;;;;;;;16.50;15.23;;;21.90;99.90;;;;;;4970943;28;20458;-73
2022/10/18 09:20:47;;;;;;;16.70;15.53;;;22.40;99.90;;;;;;4970546;28;20483;-73
2022/10/18 09:23:19;;;;;;;14.80;14.10;;;23.00;99.90;;;;;;4970411;28;20945;-73
2022/10/18 09:25:48;;;;;;;14.93;13.70;;;23.60;99.90;;;;;;4970575;28;20447;-74
2022/10/18 09:28:25;;;;;;;15.87;14.83;;;24.60;99.90;;;;;;4970352;28;20458;-73
2022/10/18 09:31:00;;;;;;;14.50;13.60;;;25.60;99.90;;;;;;4970724;28;20467;-74
2022/10/18 09:33:38;;;;;;;15.03;14.30;;;27.00;97.30;;;;;;4969448;28;20459;-74
2022/10/18 09:36:07;;;;;;;16.33;15.53;;;28.70;94.50;;;;;;4967921;28;20455;-74
2022/10/18 09:38:42;;;;;;;15.83;14.77;;;30.80;89.90;;;;;;4973963;28;20474;-74
2022/10/18 09:41:13;;;;;;;16.13;15.33;;;31.60;82.40;;;;;;4974341;28;20498;-74
2022/10/18 09:43:49;;;;;;;15.90;15.20;;;32.70;79.00;;;;;;4974456;28;20829;-74
2022/10/18 09:46:18;;;;;;;16.93;15.57;;;33.10;74.20;;;;;;4974015;28;20458;-74
2022/10/18 09:48:49;;;;;;;15.43;14.53;;;31.60;77.90;;;;;;4973852;28;20462;-76
2022/10/18 09:51:20;;;;;;;16.10;14.97;;;30.20;83.10;;;;;;4974043;28;20443;-76
2022/10/18 09:53:59;;;;;;;14.47;13.77;;;29.20;87.00;;;;;;4973974;28;20464;-74
2022/10/18 09:56:29;;;;;;;15.87;14.97;;;28.90;87.70;;;;;;4974050;28;20461;-74
2022/10/18 09:58:58;;;;;;;16.90;15.70;;;27.60;90.90;;;;;;4974124;28;20450;-73
2022/10/18 10:01:26;;;;;;;15.73;14.93;;;27.00;91.80;;;;;;4973976;28;20487;-75
2022/10/18 10:03:53;;;;;;;15.67;14.87;;;27.50;91.70;;;;;;4973729;28;20447;-75
2022/10/18 10:06:25;;;;;;;16.53;15.50;;;28.20;91.10;;;;;;4973380;28;20460;-75
2022/10/18 10:08:58;;;;;;;16.30;15.50;;;29.50;88.00;;;;;;4973614;28;20439;-75
2022/10/18 10:11:37;;;;;;;14.80;14.20;;;29.70;92.10;;;;;;4974124;28;20447;-75
2022/10/18 10:14:16;;;;;;;16.30;15.40;;;29.60;85.30;;;;;;4984650;28;20482;-75
2022/10/18 10:16:47;;;;;;;15.23;14.63;;;30.00;84.40;;;;;;4992912;28;20509;-74
2022/10/18 10:19:18;;;;;;;15.27;14.57;;;29.80;83.00;;;;;;4992734;28;20936;-74
2022/10/18 10:21:45;;;;;;;14.50;13.80;;;28.70;85.80;;;;;;4992857;28;20521;-77
2022/10/18 10:24:28;;;;;;;14.40;13.70;;;27.80;88.80;;;;;;4993408;28;20455;-75
2022/10/18 10:27:06;;;;;;;16.60;15.70;;;27.40;90.20;;;;;;4992880;28;20815;-75
2022/10/18 10:29:55;;;;;;;16.63;15.63;;;26.70;91.90;;;;;;4990620;28;20450;-75
2022/10/18 10:32:24;;;;;;;14.83;14.13;;;26.20;92.90;;;;;;4992757;28;20482;-75
2022/10/18 10:34:51;;;;;;;15.63;14.77;;;25.80;94.10;;;;;;4992984;28;20454;-75
2022/10/18 10:37:27;;;;;;;14.60;14.00;;;26.80;92.90;;;;;;4993139;28;20451;-76
2022/10/18 10:40:22;;;;;;;15.60;14.70;;;28.60;90.00;;;;;;4993351;28;20450;-75
2022/10/18 10:42:59;;;;;;;15.87;15.07;;;29.70;85.70;;;;;;4992722;28;20450;-75
2022/10/18 10:45:30;;;;;;;16.13;15.30;;;31.00;80.80;;;;;;4992674;28;20455;-75
2022/10/18 10:48:05;;;;;;;16.53;15.50;;;31.40;77.40;;;;;;4991938;28;20455;-75
2022/10/18 10:50:32;;;;;;;15.63;14.93;;;31.40;77.40;;;;;;4992175;28;20447;-75
2022/10/18 10:52:59;;;;;;;16.37;15.53;;;30.60;79.80;;;;;;4992078;28;20979;-75
2022/10/18 10:55:33;;;;;;;15.57;14.70;;;30.60;79.30;;;;;;4993273;28;20454;-75
2022/10/18 10:58:00;;;;;;;16.27;15.30;;;30.30;80.60;;;;;;4996823;28;20469;-76
2022/10/18 11:00:41;;;;;;;15.60;14.80;;;29.80;82.50;;;;;;4996723;28;21004;-76
2022/10/18 11:03:13;;;;;;;15.50;14.43;;;29.20;83.60;;;;;;4995146;28;20984;-76
2022/10/18 11:05:45;;;;;;;14.60;14.00;;;27.80;88.10;;;;;;4993968;28;20459;-74
2022/10/18 11:08:16;;;;;;;13.80;13.20;;;27.30;90.70;;;;;;4991956;28;20462;-74
2022/10/18 11:10:55;;;;;;;16.80;15.63;;;26.90;91.70;;;;;;4991891;28;20458;-75
2022/10/18 11:13:30;;;;;;;15.10;14.07;;;26.80;92.50;;;;;;4991877;28;20483;-74
2022/10/18 11:16:04;;;;;;;14.83;13.93;;;27.00;92.40;;;;;;4992086;28;20450;-74
2022/10/18 11:18:34;;;;;;;15.00;14.10;;;26.70;92.40;;;;;;4991695;28;20742;-74
2022/10/18 11:21:07;;;;;;;14.10;13.23;;;26.50;92.90;;;;;;4992209;28;20478;-75
2022/10/18 11:23:35;;;;;;;13.90;13.20;;;26.70;93.10;;;;;;4991811;28;20856;-74
2022/10/18 11:26:23;;;;;;;14.40;13.50;;;27.00;92.60;;;;;;4991538;28;20459;-76
2022/10/18 11:29:05;;;;;;;14.30;13.60;;;27.00;92.50;;;;;;4991418;28;20450;-75
2022/10/18 11:31:39;;;;;;;15.87;14.90;;;27.70;92.20;;;;;;4991667;28;20686;-76
2022/10/18 11:34:23;;;;;;;16.10;15.30;;;29.60;89.60;;;;;;4991864;28;20455;-76
2022/10/18 11:36:58;;;;;;;16.43;15.40;;;31.20;82.70;;;;;;4991385;28;20457;-75
2022/10/18 11:39:29;;;;;;;15.83;14.97;;;32.40;77.90;;;;;;4991868;28;20451;-76
2022/10/18 11:42:03;;;;;;;15.37;14.20;;;33.30;74.00;;;;;;4991638;28;20493;-75
2022/10/18 11:44:39;;;;;;;15.40;14.70;;;32.60;73.90;;;;;;4991275;28;20824;-76
2022/10/18 11:47:15;;;;;;;15.90;14.90;;;31.40;76.90;;;;;;4991235;28;20549;-75
2022/10/18 11:50:02;;;;;;;15.50;14.80;;;31.40;77.60;;;;;;4991392;28;20819;-75
2022/10/18 11:52:39;;;;;;;16.23;15.27;;;33.30;73.30;;;;;;4991197;28;20459;-75
2022/10/18 11:55:20;;;;;;;16.73;15.57;;;34.10;69.30;;;;;;4991208;28;20465;-75
2022/10/18 11:57:54;;;;;;;15.10;14.40;;;33.40;69.50;;;;;;4991065;28;20446;-76
2022/10/18 12:00:43;;;;;;;16.73;15.10;;;32.10;73.70;;;;;;4991025;28;20775;-75
2022/10/18 12:03:32;;;;;;;15.07;14.20;;;33.20;72.60;;;;;;4991429;28;20461;-75
2022/10/18 12:06:04;;;;;;;16.20;15.37;;;34.70;67.10;;;;;;4990959;28;20451;-75
2022/10/18 12:08:36;;;;;;;16.33;15.30;;;34.10;67.10;;;;;;4990795;28;20866;-76
2022/10/18 12:11:09;;;;;;;15.93;14.97;;;33.20;69.50;;;;;;4990812;28;20458;-76
2022/10/18 12:13:40;;;;;;;16.07;15.13;;;33.10;70.70;;;;;;4990699;28;20481;-76
2022/10/18 12:16:09;;;;;;;17.23;15.80;;;32.30;70.70;;;;;;4990944;28;20477;-76
2022/10/18 12:18:46;;;;;;;15.33;14.43;;;30.70;75.80;;;;;;4990903;28;20446;-76
2022/10/18 12:21:13;;;;;;;15.93;15.00;;;29.80;79.80;;;;;;4990351;28;20493;-76
2022/10/18 12:23:47;;;;;;;15.97;14.90;;;28.90;82.80;;;;;;4990949;28;20450;-75
2022/10/18 12:26:14;;;;;;;14.80;14.00;;;28.50;86.00;;;;;;4990481;28;20451;-75
2022/10/18 12:28:51;;;;;;;14.80;13.93;;;27.80;89.50;;;;;;4990853;28;20797;-75
2022/10/18 12:31:24;;;;;;;14.40;13.70;;;27.10;91.50;;;;;;4990552;28;20442;-75
2022/10/18 12:33:58;;;;;;;15.13;14.33;;;27.80;91.40;;;;;;4990309;28;20453;-75
2022/10/18 12:36:45;;;;;;;13.90;13.30;;;28.20;90.50;;;;;;4990424;28;20457;-75
2022/10/18 12:39:19;;;;;;;13.63;13.03;;;28.20;90.00;;;;;;4990200;28;20461;-75
2022/10/18 12:41:47;;;;;;;14.40;13.50;;;27.60;90.60;;;;;;4990078;28;20662;-75
2022/10/18 12:44:20;;;;;;;15.27;14.27;;;26.70;92.50;;;;;;4990064;28;20459;-75
2022/10/18 12:46:49;;;;;;;14.77;13.80;;;25.90;94.80;;;;;;4990128;28;20732;-74
2022/10/18 12:49:21;;;;;;;13.80;13.10;;;25.60;95.40;;;;;;4990029;28;20575;-75
2022/10/18 12:51:53;;;;;;;16.40;15.10;;;25.90;94.60;;;;;;4990129;28;20450;-74
2022/10/18 12:54:25;;;;;;;15.20;14.00;;;26.40;94.50;;;;;;4989814;28;20451;-74
2022/10/18 12:56:51;;;;;;;14.53;13.47;;;27.20;93.30;;;;;;4989554;28;20451;-74
2022/10/18 12:59:52;;;;;;;13.07;12.30;;;27.40;91.90;;;;;;4989241;28;20558;-74
2022/10/18 13:02:22;;;;;;;13.97;13.33;;;26.90;93.00;;;;;;4989176;28;20490;-75
2022/10/18 13:04:51;;;;;;;15.37;14.20;;;26.00;95.10;;;;;;4989121;28;20486;-75
2022/10/18 13:07:21;;;;;;;13.10;12.30;;;26.00;96.10;;;;;;4989186;28;20454;-75
2022/10/18 13:10:40;;;;;;;14.33;13.63;;;25.90;96.20;;;;;;4988982;28;20582;-75
2022/10/18 13:13:47;;;;;;;13.57;12.87;;;25.60;96.70;;;;;;4988622;28;20486;-74
2022/10/18 13:16:32;;;;;;;15.00;14.20;;;25.20;98.40;;;;;;4989318;28;20454;-73
2022/10/18 13:19:09;;;;;;;14.50;13.67;;;24.50;99.90;;;;;;4989177;28;20773;-73
2022/10/18 13:21:49;;;;;;;15.20;14.23;;;24.10;99.90;;;;;;4989183;28;20859;-74
2022/10/18 13:24:24;;;;;;;14.07;13.33;;;23.90;99.90;;;;;;4989041;28;21058;-74
2022/10/18 13:27:05;;;;;;;15.30;14.30;;;23.90;99.90;;;;;;4989144;28;20454;-75
2022/10/18 13:29:53;;;;;;;13.40;12.70;;;24.10;99.90;;;;;;4988695;28;20477;-74
2022/10/18 13:32:27;;;;;;;14.73;13.90;;;24.30;99.90;;;;;;4988843;28;20454;-75
2022/10/18 13:34:54;;;;;;;13.57;12.93;;;24.30;99.90;;;;;;4989083;28;20500;-75
2022/10/18 13:37:24;;;;;;;14.53;13.70;;;24.20;99.90;;;;;;4988770;28;20451;-74
2022/10/18 13:40:12;;;;;;;12.57;11.97;;;24.00;99.90;;;;;;4989363;28;20963;-75
2022/10/18 13:42:39;;;;;;;14.23;13.23;;;23.70;99.90;;;;;;4988998;28;20491;-76
2022/10/18 13:45:45;;;;;;;13.10;12.50;;;23.50;99.90;;;;;;4989143;28;20453;-76
2022/10/18 13:48:47;;;;;;;14.63;13.80;;;23.50;99.90;;;;;;4989010;28;20501;-75
2022/10/18 13:51:35;;;;;;;12.60;11.90;;;23.50;99.90;;;;;;4988661;28;20989;-76
2022/10/18 13:54:14;;;;;;;13.63;13.03;;;23.60;99.90;;;;;;4988967;28;20451;-75
2022/10/18 13:56:55;;;;;;;14.53;13.10;;;23.60;99.90;;;;;;4988923;28;20457;-75
2022/10/18 13:59:34;;;;;;;14.37;13.63;;;23.40;99.90;;;;;;4988763;28;20940;-75
2022/10/18 14:02:29;;;;;;;13.90;13.20;;;23.40;99.90;;;;;;4988471;28;20675;-77
2022/10/18 14:05:12;;;;;;;13.40;12.53;;;23.40;99.90;;;;;;4989037;28;20459;-76
2022/10/18 14:07:42;;;;;;;14.73;13.93;;;23.40;99.90;;;;;;4988900;28;20843;-75
2022/10/18 14:10:20;;;;;;;13.97;13.03;;;23.40;99.90;;;;;;4988847;28;20552;-76
2022/10/18 14:12:53;;;;;;;14.20;13.60;;;23.30;99.90;;;;;;4988352;28;20774;-75
2022/10/18 14:15:24;;;;;;;14.07;12.90;;;23.10;99.90;;;;;;4974494;28;20547;-75
2022/10/18 14:17:54;;;;;;;16.00;15.20;;;22.90;99.90;;;;;;4977647;28;20438;-74
2022/10/18 14:20:26;;;;;;;15.50;14.60;;;22.80;99.90;;;;;;4979114;28;20446;-75
2022/10/18 14:23:01;;;;;;;13.53;12.97;;;22.80;99.90;;;;;;4978490;28;20483;-75
2022/10/18 14:25:31;;;;;;;14.40;13.50;;;22.60;99.90;;;;;;4979106;28;20950;-75
2022/10/18 14:28:12;;;;;;;13.70;13.10;;;22.60;99.90;;;;;;4980723;28;20447;-75
2022/10/18 14:30:52;;;;;;;14.93;13.90;;;22.70;99.90;;;;;;4981023;28;20790;-75
2022/10/18 14:33:26;;;;;;;14.60;13.67;;;22.60;99.90;;;;;;4980435;28;20447;-74
2022/10/18 14:35:59;;;;;;;14.90;14.10;;;22.60;99.90;;;;;;4981187;28;20509;-75
2022/10/18 14:38:26;;;;;;;19.60;13.70;;;22.60;99.90;;;;;;4978823;28;20455;-75
2022/10/18 14:41:07;;;;;;;14.63;14.00;;;22.60;99.90;;;;;;4980905;28;20469;-76
2022/10/18 14:43:33;;;;;;;13.60;12.90;;;22.30;99.90;;;;;;4980458;28;20444;-75
2022/10/18 14:46:15;;;;;;;14.30;13.60;;;22.60;99.90;;;;;;4980154;28;20444;-76
2022/10/18 14:48:42;;;;;;;13.90;13.30;;;22.60;99.90;;;;;;4980499;28;20469;-75
2022/10/18 14:51:13;;;;;;;14.60;14.00;;;22.50;99.90;;;;;;4981678;28;20447;-75
2022/10/18 14:53:40;;;;;;;14.90;14.20;;;22.40;99.90;;;;;;4982701;28;20443;-75
2022/10/18 14:56:21;;;;;;;13.83;13.17;;;22.30;99.90;;;;;;4981191;28;20448;-75
2022/10/18 14:58:48;;;;;;;16.50;15.20;;;22.20;99.90;;;;;;4981012;28;20452;-75
2022/10/18 15:01:17;;;;;;;13.90;13.27;;;22.20;99.90;;;;;;4980452;28;20776;-75
2022/10/18 15:03:44;;;;;;;14.40;13.77;;;22.30;99.90;;;;;;4977830;28;20455;-74
2022/10/18 15:06:16;;;;;;;14.20;13.50;;;22.40;99.90;;;;;;4980988;28;20451;-75
2022/10/18 15:08:45;;;;;;;14.20;13.37;;;22.30;99.90;;;;;;4977353;28;20475;-76
2022/10/18 15:11:15;;;;;;;14.43;13.83;;;22.50;99.90;;;;;;4980644;28;20446;-75
2022/10/18 15:13:47;;;;;;;15.60;14.80;;;22.50;99.90;;;;;;4981897;28;20925;-76
2022/10/18 15:16:16;;;;;;;15.07;14.27;;;22.60;99.90;;;;;;4991079;28;20458;-74
2022/10/18 15:18:43;;;;;;;14.47;13.63;;;22.70;99.90;;;;;;4990940;28;20533;-75
2022/10/18 15:21:21;;;;;;;14.57;13.80;;;22.70;99.90;;;;;;4991498;28;20450;-75
2022/10/18 15:23:48;;;;;;;14.90;14.00;;;22.60;99.90;;;;;;4990785;28;20439;-75
2022/10/18 15:26:22;;;;;;;14.07;13.30;;;22.50;99.90;;;;;;4990496;28;20458;-75
2022/10/18 15:28:52;;;;;;;15.67;14.20;;;22.40;99.90;;;;;;4983481;28;20439;-75
2022/10/18 15:31:27;;;;;;;13.80;12.90;;;22.30;99.90;;;;;;4979473;28;20510;-75
2022/10/18 15:34:06;;;;;;;14.60;14.00;;;22.10;99.90;;;;;;4979251;28;20451;-76
2022/10/18 15:36:34;;;;;;;15.33;14.60;;;22.00;99.90;;;;;;4978690;28;20444;-75
2022/10/18 15:39:06;;;;;;;14.30;13.70;;;21.90;99.90;;;;;;4978706;28;20968;-76
2022/10/18 15:41:39;;;;;;;15.30;14.53;;;21.90;99.90;;;;;;4976469;28;20969;-76
2022/10/18 15:44:19;;;;;;;15.03;14.43;;;21.90;99.90;;;;;;4978382;28;20556;-76
2022/10/18 15:46:47;;;;;;;15.67;15.07;;;21.80;99.90;;;;;;4978305;28;20846;-76
2022/10/18 15:49:55;;;;;;;15.53;14.73;;;21.70;99.90;;;;;;4980172;28;20459;-76
2022/10/18 15:52:39;;;;;;;16.80;15.93;;;21.70;99.90;;;;;;4978753;28;20450;-76
2022/10/18 15:55:46;;;;;;;15.60;15.00;;;21.80;99.90;;;;;;4979562;28;20459;-76
2022/10/18 15:58:18;;;;;;;15.10;14.30;;;21.70;99.90;;;;;;4979936;28;20474;-76
2022/10/18 16:00:46;;;;;;;16.03;14.97;;;21.60;99.90;;;;;;4979798;28;20458;-76
2022/10/18 16:03:13;;;;;;;16.47;15.60;;;21.60;99.90;;;;;;4977517;28;20478;-76
2022/10/18 16:05:40;;;;;;;16.13;15.27;;;21.70;99.90;;;;;;4980145;28;20456;-74